createdAt,value
2022-12-23T00:03:33.389Z,5.80
2022-12-23T00:08:36.273Z,6.45
2022-12-23T00:13:56.766Z,6.15
2022-12-23T00:18:58.717Z,6.88
2022-12-23T00:24:00.752Z,5.50
2022-12-23T00:29:02.778Z,5.75
2022-12-23T00:34:04.744Z,5.55
2022-12-23T00:39:25.183Z,5.95
2022-12-23T00:44:27.269Z,5.43
2022-12-23T00:49:44.265Z,6.30
2022-12-23T00:54:46.332Z,6.47
2022-12-23T00:59:48.326Z,6.85
2022-12-23T01:05:09.125Z,6.72
2022-12-23T01:10:11.301Z,6.18
2022-12-23T01:15:13.586Z,6.68
2022-12-23T01:20:15.614Z,6.80
2022-12-23T01:25:17.983Z,6.13
2022-12-23T01:30:20.092Z,7.28
2022-12-23T01:35:22.100Z,6.95
2022-12-23T01:40:24.103Z,6.93
2022-12-23T01:45:31.388Z,7.05
2022-12-23T01:50:46.970Z,6.82
2022-12-23T01:55:59.417Z,7.20
2022-12-23T02:01:20.798Z,6.32
2022-12-23T02:06:53.551Z,7.10
2022-12-23T02:12:22.874Z,7.55
2022-12-23T02:17:44.106Z,7.63
2022-12-23T02:23:09.194Z,7.40
2022-12-23T02:28:35.929Z,7.68
2022-12-23T02:33:59.748Z,7.10
2022-12-23T02:39:42.544Z,7.35
2022-12-23T02:45:01.656Z,8.15
2022-12-23T02:50:24.638Z,8.15
2022-12-23T02:55:32.421Z,8.70
2022-12-23T03:00:36.645Z,9.27
2022-12-23T03:05:43.080Z,9.80
2022-12-23T03:11:06.341Z,10.75
2022-12-23T03:16:16.961Z,11.30
2022-12-23T03:21:40.337Z,11.52
2022-12-23T03:26:46.241Z,11.95
2022-12-23T03:31:50.802Z,12.40
2022-12-23T03:36:56.012Z,11.80
2022-12-23T03:42:27.039Z,12.07
2022-12-23T03:47:35.681Z,12.75
2022-12-23T03:52:54.204Z,11.05
2022-12-23T03:58:22.302Z,11.55
2022-12-23T04:03:56.395Z,12.98
2022-12-23T04:08:59.399Z,10.75
2022-12-23T04:14:01.414Z,12.05
2022-12-23T04:19:03.515Z,12.45
2022-12-23T04:24:05.894Z,12.02
2022-12-23T04:29:07.994Z,11.15
2022-12-23T04:34:10.052Z,10.70
2022-12-23T04:39:12.265Z,10.95
2022-12-23T04:44:14.381Z,10.40
2022-12-23T04:49:16.545Z,12.23
2022-12-23T04:54:18.575Z,11.68
2022-12-23T04:59:20.674Z,12.00
2022-12-23T05:04:22.800Z,11.05
2022-12-23T05:09:25.065Z,11.25
2022-12-23T05:14:27.191Z,11.68
2022-12-23T05:19:29.269Z,11.75
2022-12-23T05:24:31.280Z,13.07
2022-12-23T05:29:33.259Z,12.45
2022-12-23T05:34:35.409Z,13.23
2022-12-23T05:39:37.354Z,12.02
2022-12-23T05:44:39.394Z,12.88
2022-12-23T05:49:41.495Z,12.63
2022-12-23T05:54:43.581Z,12.82
2022-12-23T05:59:45.651Z,12.45
2022-12-23T06:04:47.994Z,11.05
2022-12-23T06:09:50.226Z,10.93
2022-12-23T06:14:52.475Z,8.70
2022-12-23T06:19:54.444Z,10.27
2022-12-23T06:24:56.476Z,10.27
2022-12-23T06:29:58.583Z,9.55
2022-12-23T06:35:00.575Z,10.57
2022-12-23T06:40:02.589Z,10.65
2022-12-23T06:45:06.406Z,10.63
2022-12-23T06:50:09.302Z,10.57
2022-12-23T06:55:11.312Z,9.90
2022-12-23T07:00:14.144Z,9.05
2022-12-23T07:05:17.127Z,9.90
2022-12-23T07:10:19.196Z,11.23
2022-12-23T07:15:21.137Z,9.50
2022-12-23T07:20:23.237Z,10.02
2022-12-23T07:25:25.420Z,11.05
2022-12-23T07:30:27.514Z,10.35
2022-12-23T07:35:29.702Z,10.32
2022-12-23T07:40:31.792Z,12.05
2022-12-23T07:45:33.956Z,12.00
2022-12-23T07:50:36.074Z,12.25
2022-12-23T07:55:39.780Z,12.15
2022-12-23T08:00:41.818Z,15.43
2022-12-23T08:05:43.846Z,14.48
2022-12-23T08:10:48.597Z,14.68
2022-12-23T08:15:55.901Z,13.77
2022-12-23T08:21:00.459Z,14.90
2022-12-23T08:26:06.890Z,14.27
2022-12-23T08:31:18.236Z,12.32
2022-12-23T08:36:23.910Z,11.93
2022-12-23T08:41:30.054Z,12.70
2022-12-23T08:46:32.409Z,12.25
2022-12-23T08:51:35.745Z,12.60
2022-12-23T08:56:41.300Z,12.63
2022-12-23T09:01:43.734Z,11.90
2022-12-23T09:06:45.828Z,12.30
2022-12-23T09:11:47.857Z,12.85
2022-12-23T09:16:52.939Z,12.23
2022-12-23T09:21:54.902Z,13.00
2022-12-23T09:26:56.990Z,11.60
2022-12-23T09:31:59.017Z,12.50
2022-12-23T09:37:02.836Z,15.45
2022-12-23T09:42:23.108Z,16.40
2022-12-23T09:47:28.244Z,16.33
2022-12-23T09:52:55.039Z,14.43
2022-12-23T09:58:06.968Z,14.65
2022-12-23T10:08:46.928Z,14.90
2022-12-23T10:13:52.415Z,14.35
2022-12-23T10:19:07.075Z,13.35
2022-12-23T10:24:24.355Z,14.27
2022-12-23T10:29:30.567Z,14.38
2022-12-23T10:34:45.876Z,13.10
2022-12-23T10:40:24.996Z,16.83
2022-12-23T10:45:51.853Z,16.42
2022-12-23T10:51:12.309Z,16.48
2022-12-23T10:56:15.284Z,15.98
2022-12-23T11:01:26.684Z,14.98
2022-12-23T11:06:36.861Z,15.38
2022-12-23T11:12:04.857Z,13.30
2022-12-23T11:17:19.353Z,12.93
2022-12-23T11:22:25.770Z,12.73
2022-12-23T11:27:27.809Z,10.65
2022-12-23T11:32:30.349Z,11.40
2022-12-23T11:37:40.483Z,11.32
2022-12-23T11:42:43.327Z,9.55
2022-12-23T11:47:45.402Z,10.50
2022-12-23T11:53:00.617Z,11.60
2022-12-23T11:58:03.369Z,11.88
2022-12-23T12:03:14.413Z,12.27
2022-12-23T12:08:22.697Z,10.47
2022-12-23T12:13:36.614Z,11.18
2022-12-23T12:18:42.086Z,11.02
2022-12-23T12:23:48.707Z,11.32
2022-12-23T12:28:57.545Z,12.35
2022-12-23T12:34:05.251Z,12.90
2022-12-23T12:39:15.757Z,10.93
2022-12-23T12:44:34.671Z,11.75
2022-12-23T12:49:48.575Z,12.65
2022-12-23T12:55:02.982Z,11.80
2022-12-23T13:00:08.608Z,11.38
2022-12-23T13:05:40.445Z,12.13
2022-12-23T13:10:45.234Z,11.48
2022-12-23T13:15:47.204Z,12.50
2022-12-23T13:20:59.981Z,10.25
2022-12-23T13:26:14.353Z,11.90
2022-12-23T13:31:33.520Z,11.68
2022-12-23T13:37:00.619Z,12.02
2022-12-23T13:42:06.066Z,11.57
2022-12-23T13:47:18.928Z,12.00
2022-12-23T13:52:48.432Z,11.63
2022-12-23T13:58:19.924Z,11.45
2022-12-23T14:03:32.644Z,10.80
2022-12-23T14:08:43.003Z,9.60
2022-12-23T14:13:50.894Z,9.80
2022-12-23T14:19:04.937Z,8.93
2022-12-23T14:24:15.640Z,9.85
2022-12-23T14:29:43.879Z,8.80
2022-12-23T14:35:23.909Z,8.43
2022-12-23T14:40:37.959Z,9.00
2022-12-23T14:45:43.885Z,8.55
2022-12-23T14:50:58.166Z,7.65
2022-12-23T14:56:15.366Z,8.55
2022-12-23T15:01:39.043Z,7.22
2022-12-23T15:06:47.642Z,7.25
2022-12-23T15:11:50.981Z,7.30
2022-12-23T15:16:53.002Z,8.60
2022-12-23T15:22:20.852Z,8.25
2022-12-23T15:27:27.736Z,7.60
2022-12-23T15:32:31.187Z,7.32
2022-12-23T15:37:34.388Z,5.65
2022-12-23T15:42:38.560Z,5.63
2022-12-23T15:47:43.036Z,5.53
2022-12-23T15:52:47.931Z,5.40
2022-12-23T15:57:51.798Z,5.25
2022-12-23T16:03:01.163Z,5.05
2022-12-23T16:08:16.555Z,5.28
2022-12-23T16:13:20.303Z,5.45
2022-12-23T16:18:23.649Z,5.53
2022-12-23T16:23:30.312Z,7.95
2022-12-23T16:28:52.612Z,6.35
2022-12-23T16:33:59.166Z,5.72
2022-12-23T16:39:06.906Z,6.40
2022-12-23T16:44:08.900Z,7.07
2022-12-23T16:49:16.945Z,6.65
2022-12-23T16:54:20.470Z,6.85
2022-12-23T16:59:22.642Z,6.60
2022-12-23T17:04:24.614Z,7.57
2022-12-23T17:09:27.611Z,7.68
2022-12-23T17:14:29.776Z,7.00
2022-12-23T17:19:32.951Z,8.70
2022-12-23T17:24:35.100Z,7.78
2022-12-23T17:29:37.084Z,9.05
2022-12-23T17:34:39.596Z,8.55
2022-12-23T17:39:43.175Z,9.32
2022-12-23T17:44:45.540Z,8.05
2022-12-23T17:49:47.935Z,8.73
2022-12-23T17:54:51.409Z,9.63
2022-12-23T17:59:54.778Z,8.90
2022-12-23T18:04:56.875Z,10.30
2022-12-23T18:09:58.962Z,10.20
2022-12-23T18:15:02.319Z,9.13
2022-12-23T18:20:06.439Z,10.30
2022-12-23T18:25:15.636Z,8.90
2022-12-23T18:30:18.337Z,7.78
2022-12-23T18:35:27.853Z,9.52
2022-12-23T18:40:32.897Z,8.68
2022-12-23T18:45:39.903Z,7.68
2022-12-23T18:50:43.005Z,8.07
2022-12-23T18:55:45.093Z,7.72
2022-12-23T19:00:48.437Z,6.15
2022-12-23T19:05:52.104Z,6.97
2022-12-23T19:10:55.467Z,6.88
2022-12-23T19:15:57.597Z,6.82
2022-12-23T19:21:04.210Z,6.05
2022-12-23T19:26:06.381Z,6.03
2022-12-23T19:31:13.156Z,6.03
2022-12-23T19:36:22.802Z,7.93
2022-12-23T19:41:25.481Z,6.57
2022-12-23T19:46:27.530Z,7.93
2022-12-23T19:51:30.641Z,6.93
2022-12-23T19:56:32.761Z,7.30
2022-12-23T20:01:35.163Z,7.97
2022-12-23T20:06:38.503Z,7.45
2022-12-23T20:11:46.638Z,9.57
2022-12-23T20:16:49.436Z,8.00
2022-12-23T20:21:52.190Z,8.55
2022-12-23T20:26:54.227Z,8.57
2022-12-23T20:31:57.240Z,8.27
2022-12-23T20:36:59.385Z,8.48
2022-12-23T20:42:01.443Z,6.95
2022-12-23T20:47:05.656Z,8.95
2022-12-23T20:52:07.820Z,8.48
2022-12-23T20:57:09.862Z,8.10
2022-12-23T21:02:15.774Z,9.07
2022-12-23T21:07:17.978Z,8.65
2022-12-23T21:12:20.031Z,9.73
2022-12-23T21:17:23.909Z,7.97
2022-12-23T21:22:26.424Z,8.02
2022-12-23T21:27:28.490Z,8.25
2022-12-23T21:32:30.564Z,7.35
2022-12-23T21:37:32.574Z,7.68
2022-12-23T21:42:34.599Z,7.45
2022-12-23T21:47:36.749Z,6.57
2022-12-23T21:52:38.742Z,6.88
2022-12-23T21:57:40.755Z,7.47
2022-12-23T22:02:42.944Z,7.35
2022-12-23T22:07:45.027Z,6.95
2022-12-23T22:12:47.097Z,7.10
2022-12-23T22:17:49.147Z,7.00
2022-12-23T22:22:51.169Z,5.80
2022-12-23T22:27:53.177Z,5.70
2022-12-23T22:32:55.659Z,5.53
2022-12-23T22:37:59.255Z,5.47
2022-12-23T22:43:01.203Z,5.60
2022-12-23T22:48:03.221Z,4.78
2022-12-23T22:53:05.962Z,4.43
2022-12-23T22:58:08.048Z,5.10
2022-12-23T23:03:10.012Z,5.00
2022-12-23T23:08:14.640Z,4.40
2022-12-23T23:13:16.741Z,4.43
2022-12-23T23:18:19.056Z,4.18
2022-12-23T23:23:21.711Z,3.75
2022-12-23T23:28:23.718Z,4.95
2022-12-23T23:33:25.717Z,3.28
2022-12-23T23:38:28.451Z,4.70
2022-12-23T23:43:30.672Z,5.18
2022-12-23T23:48:32.738Z,5.15
2022-12-23T23:53:34.864Z,5.65
2022-12-23T23:58:37.467Z,4.38
